Time;durP1;ratioP1;P1;durP2;ratioP2;P2;SDS_P1;SDS_P2;PMS_P1;PMS_P2;Temp;Humidity;BMP_temperature;BMP_pressure;BME280_temperature;BME280_humidity;BME280_pressure;Samples;Min_cycle;Max_cycle;Signal;HPM_P1;HPM_P2
2022/11/11 00:00:06;;;;;;;7.22;3.53;;;;;;;12.79;58.71;102795.38;4962603;28;125148;-68
2022/11/11 00:02:54;;;;;;;9.05;3.97;;;;;;;12.75;58.77;102788.38;4960499;28;119920;-68
2022/11/11 00:05:40;;;;;;;8.65;3.90;;;;;;;12.75;58.65;102788.38;4960362;28;119693;-67
2022/11/11 00:08:25;;;;;;;8.57;4.00;;;;;;;12.73;58.72;102784.88;4961900;28;124887;-68
2022/11/11 00:11:12;;;;;;;7.53;3.78;;;;;;;12.71;58.63;102776.94;4959883;28;124673;-67
2022/11/11 00:13:57;;;;;;;7.65;3.63;;;;;;;12.70;58.90;102779.66;4963226;28;121394;-68
2022/11/11 00:25:58;;;;;;;10.10;4.05;;;;;;;12.59;58.98;102786.06;4964036;28;119873;-67
2022/11/11 00:29:03;;;;;;;7.60;3.72;;;;;;;12.58;59.00;102792.31;4964327;28;119494;-68
2022/11/11 00:38:07;;;;;;;8.90;4.10;;;;;;;12.54;59.12;102816.31;4954271;28;120062;-68
2022/11/11 00:40:52;;;;;;;9.80;4.07;;;;;;;12.53;59.24;102815.44;4963607;28;119508;-68
2022/11/11 00:43:38;;;;;;;8.45;4.10;;;;;;;12.54;59.22;102821.63;4960543;28;124866;-68
2022/11/11 00:52:32;;;;;;;9.93;4.57;;;;;;;12.56;59.37;102826.00;4958490;28;119484;-68
2022/11/11 00:55:18;;;;;;;11.57;5.40;;;;;;;12.59;59.68;102828.59;4961938;28;124609;-68
2022/11/11 00:58:03;;;;;;;9.52;4.90;;;;;;;12.62;59.59;102831.22;4959120;28;124423;-68
2022/11/11 01:00:52;;;;;;;12.88;6.07;;;;;;;12.65;59.73;102828.47;4960065;28;120039;-68
2022/11/11 01:03:38;;;;;;;11.07;5.85;;;;;;;12.70;59.86;102828.38;4963454;28;119808;-68
2022/11/11 01:06:24;;;;;;;13.02;6.13;;;;;;;12.75;59.80;102828.25;4952693;28;125130;-68
2022/11/11 01:09:10;;;;;;;13.85;6.85;;;;;;;12.77;59.84;102835.31;4955839;28;124467;-68
2022/11/11 01:11:55;;;;;;;14.93;6.40;;;;;;;12.80;59.86;102842.34;4953489;28;120931;-68
2022/11/11 01:14:41;;;;;;;11.40;6.57;;;;;;;12.83;59.92;102844.94;4958217;28;119804;-68
2022/11/11 01:17:28;;;;;;;14.48;7.10;;;;;;;12.86;59.93;102834.22;4961524;28;124626;-68
2022/11/11 01:20:14;;;;;;;13.25;6.43;;;;;;;12.90;60.10;102841.19;4963462;28;124899;-68
2022/11/11 01:22:59;;;;;;;12.90;6.38;;;;;;;12.92;60.06;102834.09;4957622;28;119764;-67
2022/11/11 01:25:46;;;;;;;;;;;;;;;12.94;59.79;102832.28;4960846;28;119900;-68
2022/11/11 01:28:32;;;;;;;12.00;7.25;;;;;;;12.99;59.67;102841.00;4962687;28;124909;-68
2022/11/11 01:31:19;;;;;;;14.32;7.30;;;;;;;13.00;59.85;102826.81;4962125;28;124736;-68
2022/11/11 01:34:05;;;;;;;15.18;7.65;;;;;;;13.04;59.85;102828.47;4958900;28;120272;-68
2022/11/11 01:36:50;;;;;;;11.00;6.97;;;;;;;13.07;60.00;102826.66;4954846;28;119969;-68
2022/11/11 01:39:36;;;;;;;12.38;7.93;;;;;;;13.09;60.05;102814.19;4958350;28;124541;-68
2022/11/11 01:42:22;;;;;;;15.07;7.90;;;;;;;13.11;60.00;102823.00;4959542;28;124427;-68
2022/11/11 01:45:47;;;;;;;13.88;8.13;;;;;;;13.12;60.05;102809.66;4955943;28;120072;-68
2022/11/11 01:51:49;;;;;;;17.55;8.10;;;;;;;13.16;60.19;102810.47;4954816;28;124809;-68
2022/11/11 01:54:53;;;;;;;13.57;7.75;;;;;;;13.18;60.17;102808.63;4962969;28;124768;-68
2022/11/11 01:58:02;;;;;;;13.82;7.75;;;;;;;13.19;60.13;102810.41;4959251;28;120555;-68
2022/11/11 02:00:47;;;;;;;13.32;8.05;;;;;;;13.21;60.19;102811.25;4957619;28;119862;-68
2022/11/11 02:03:39;;;;;;;15.85;8.32;;;;;;;13.23;60.12;102806.75;4955796;28;124829;-67
2022/11/11 02:06:26;;;;;;;15.73;8.38;;;;;;;13.26;60.13;102790.72;4957129;28;124551;-68
2022/11/11 02:09:12;;;;;;;12.15;7.88;;;;;;;13.27;59.98;102792.44;4955458;28;121810;-68
2022/11/11 02:15:07;;;;;;;15.65;8.77;;;;;;;13.29;60.15;102779.97;4956940;28;124842;-68
2022/11/11 02:17:53;;;;;;;14.98;8.38;;;;;;;13.30;60.15;102781.78;4964779;28;125032;-68
2022/11/11 02:20:41;;;;;;;;;;;;;;;13.29;60.03;102779.97;4958632;28;120129;-68
2022/11/11 02:23:34;;;;;;;13.65;8.27;;;;;;;13.31;60.09;102783.50;4960498;28;119434;-68
2022/11/11 02:26:21;;;;;;;15.45;9.25;;;;;;;13.33;60.02;102781.69;4958295;28;125233;-67
2022/11/11 02:29:12;;;;;;;13.73;8.32;;;;;;;13.32;60.10;102790.59;4961829;28;124665;-68
2022/11/11 02:31:58;;;;;;;16.67;8.93;;;;;;;13.34;60.21;102788.75;4974290;28;119947;-68
2022/11/11 02:34:44;;;;;;;13.15;8.52;;;;;;;13.35;60.23;102784.31;4964075;28;120167;-68
2022/11/11 02:37:29;;;;;;;16.33;9.45;;;;;;;13.37;60.35;102794.03;4963162;28;124217;-68
2022/11/11 02:40:22;;;;;;;17.42;9.40;;;;;;;13.37;60.25;102794.03;4960245;28;124557;-68
2022/11/11 02:43:07;;;;;;;15.85;8.77;;;;;;;13.39;60.37;102802.84;4961260;28;120199;-68
2022/11/11 02:45:54;;;;;;;15.85;9.80;;;;;;;13.39;60.58;102797.50;4962926;28;120080;-68
2022/11/11 02:48:40;;;;;;;15.80;8.73;;;;;;;13.39;60.31;102797.50;4968107;28;124888;-68
2022/11/11 02:51:26;;;;;;;15.05;9.20;;;;;;;13.40;60.41;102793.91;4964823;28;123862;-67
2022/11/11 02:54:12;;;;;;;20.63;9.82;;;;;;;13.40;60.37;102782.41;4964309;28;120056;-68
2022/11/11 02:57:07;;;;;;;17.02;9.30;;;;;;;13.39;60.30;102776.22;4961166;28;119493;-68
2022/11/11 02:59:53;;;;;;;16.48;9.23;;;;;;;13.40;60.32;102772.63;4959248;28;126299;-68
2022/11/11 03:02:39;;;;;;;16.42;9.85;;;;;;;13.42;60.47;102781.44;4962027;28;125223;-68
2022/11/11 03:05:25;;;;;;;13.98;9.02;;;;;;;13.42;60.43;102786.78;4964461;28;120798;-68
2022/11/11 03:08:11;;;;;;;;;;;;;;;13.40;60.16;102787.72;4969423;28;119745;-68
2022/11/11 03:10:57;;;;;;;18.23;8.97;;;;;;;13.43;60.44;102793.84;4966257;28;125641;-68
2022/11/11 03:13:42;;;;;;;16.40;10.23;;;;;;;13.42;59.95;102792.09;4963494;28;124453;-68
2022/11/11 03:19:33;;;;;;;17.30;9.48;;;;;;;13.39;60.05;102796.63;4962554;28;119958;-68
2022/11/11 03:22:18;;;;;;;17.77;9.20;;;;;;;13.36;60.20;102786.94;4962462;28;124833;-68
2022/11/11 03:25:36;;;;;;;16.13;9.47;;;;;;;13.35;60.72;102795.81;4960432;28;125513;-68
2022/11/11 03:28:25;;;;;;;16.25;9.57;;;;;;;13.33;60.37;102792.31;4962815;28;119824;-68
2022/11/11 03:31:11;;;;;;;15.63;9.30;;;;;;;13.34;60.47;102798.53;4957876;28;119800;-68
2022/11/11 03:34:16;;;;;;;;;;;;;;;13.32;60.22;102801.25;4961159;28;124792;-68
2022/11/11 03:40:11;;;;;;;16.55;10.20;;;;;;;13.32;60.36;102784.41;4961037;28;119786;-68
2022/11/11 03:42:57;;;;;;;;;;;;;;;13.28;60.15;102780.91;4963638;28;119575;-68
2022/11/11 03:45:50;;;;;;;17.33;9.90;;;;;;;13.27;60.15;102792.44;4956069;28;126593;-68
2022/11/11 03:48:36;;;;;;;19.55;10.52;;;;;;;13.27;60.35;102788.94;4964444;28;124352;-68
2022/11/11 03:51:21;;;;;;;;;;;;;;;13.26;60.17;102801.38;4960801;28;119760;-68
2022/11/11 03:54:07;;;;;;;21.33;11.32;;;;;;;13.28;60.21;102799.53;4963049;28;120140;-68
2022/11/11 03:57:29;;;;;;;22.25;12.13;;;;;;;13.29;60.25;102801.28;4962603;28;124803;-68
2022/11/11 03:59:59;;;;;;;21.10;12.77;;;;;;;13.27;60.36;102803.09;4953785;28;124551;-68
2022/11/11 04:11:58;;;;;;;23.92;13.25;;;;;;;13.24;60.35;102812.03;4952747;28;125848;-68
2022/11/11 04:17:48;;;;;;;22.20;13.77;;;;;;;13.25;60.31;102815.56;4963836;28;119773;-68
2022/11/11 04:23:38;;;;;;;22.80;14.55;;;;;;;13.22;60.37;102815.63;4962951;28;124707;-68
2022/11/11 04:26:23;;;;;;;24.17;13.88;;;;;;;13.22;60.46;102815.63;4958394;28;120247;-68
2022/11/11 04:29:27;;;;;;;22.38;13.85;;;;;;;13.24;60.43;102813.81;4960693;28;120274;-68
2022/11/11 04:35:20;;;;;;;28.58;14.27;;;;;;;13.23;60.42;102817.41;4963461;28;124815;-68
2022/11/11 04:41:11;;;;;;;24.10;13.65;;;;;;;13.24;60.32;102819.13;4957753;28;119884;-68
2022/11/11 04:45:26;;;;;;;24.50;14.25;;;;;;;13.22;60.31;102810.31;4958571;28;124852;-68
2022/11/11 04:47:11;;;;;;;25.90;14.32;;;;;;;13.23;60.45;102806.75;4962824;28;124596;-68
2022/11/11 04:49:57;;;;;;;29.63;15.68;;;;;;;13.21;60.28;102808.59;4957195;28;119863;-67
2022/11/11 04:52:50;;;;;;;24.15;14.40;;;;;;;13.21;60.27;102805.91;4961482;28;119564;-68
2022/11/11 04:58:40;;;;;;;21.45;13.00;;;;;;;13.19;60.44;102810.41;4957104;28;124733;-67
2022/11/11 05:04:30;;;;;;;20.88;12.15;;;;;;;13.13;60.42;102810.53;4963679;28;121104;-68
2022/11/11 05:10:20;;;;;;;20.27;12.65;;;;;;;13.11;60.54;102812.34;4963106;28;124745;-68
2022/11/11 05:22:48;;;;;;;16.67;10.35;;;;;;;13.03;60.20;102826.75;4961757;28;124630;-68
2022/11/11 05:25:34;;;;;;;19.58;10.05;;;;;;;13.00;60.13;102821.47;4961097;28;119851;-68
2022/11/11 05:28:19;;;;;;;16.92;10.15;;;;;;;12.96;60.02;102819.81;4959253;28;120760;-68
2022/11/11 05:31:05;;;;;;;17.35;10.05;;;;;;;12.92;60.01;102828.78;4957386;28;124508;-68
2022/11/11 05:33:50;;;;;;;17.50;9.85;;;;;;;12.88;59.94;102821.75;4963195;28;124603;-68
2022/11/11 05:36:35;;;;;;;16.20;9.70;;;;;;;12.82;59.78;102821.91;4960691;28;120093;-68
2022/11/11 05:39:21;;;;;;;15.40;9.65;;;;;;;12.77;59.81;102818.47;4960135;28;119820;-68
2022/11/11 05:42:07;;;;;;;15.63;8.55;;;;;;;12.70;59.66;102817.75;4961571;28;125292;-67
2022/11/11 05:44:53;;;;;;;18.48;9.15;;;;;;;12.63;59.78;102827.63;4962620;28;125145;-68
2022/11/11 05:47:38;;;;;;;13.40;8.38;;;;;;;12.55;59.61;102828.72;4961326;28;120089;-68
2022/11/11 05:50:24;;;;;;;15.23;8.52;;;;;;;12.46;59.71;102824.47;4965987;28;118884;-68
2022/11/11 05:53:09;;;;;;;14.77;9.13;;;;;;;12.40;59.75;102835.22;4965097;28;125202;-68
2022/11/11 05:55:55;;;;;;;;;;;;;;;12.33;59.79;102838.91;4965693;28;124406;-67
2022/11/11 05:58:40;;;;;;;16.60;8.93;;;;;;;12.29;59.62;102837.22;4961587;28;121130;-68
2022/11/11 06:01:26;;;;;;;;;;;;;;;12.21;59.73;102834.72;4962101;28;120728;-68
2022/11/11 06:04:11;;;;;;;17.50;8.35;;;;;;;12.16;59.70;102836.59;4961359;28;124951;-68
2022/11/11 06:07:02;;;;;;;16.42;8.77;;;;;;;12.07;59.62;102837.63;4964709;28;124078;-68
2022/11/11 06:09:48;;;;;;;14.23;8.43;;;;;;;12.00;59.75;102836.03;4962419;28;119189;-68
2022/11/11 06:13:00;;;;;;;17.13;8.50;;;;;;;11.95;60.03;102843.19;4966524;28;119612;-68
2022/11/11 06:15:45;;;;;;;16.23;8.13;;;;;;;11.88;60.09;102848.59;4965278;28;124927;-68
2022/11/11 06:18:31;;;;;;;;;;;;;;;11.84;59.78;102849.53;4961213;28;126017;-68
2022/11/11 06:21:17;;;;;;;14.43;7.75;;;;;;;11.81;60.02;102852.25;4960197;28;119161;-68
2022/11/11 06:24:03;;;;;;;15.88;7.70;;;;;;;11.77;60.07;102850.56;4962115;28;119830;-68
2022/11/11 06:26:48;;;;;;;;;;;;;;;11.69;60.00;102847.16;4978150;28;126696;-68
2022/11/11 06:29:33;;;;;;;15.00;7.18;;;;;;;11.67;59.79;102854.25;4956533;28;125543;-68
2022/11/11 06:32:19;;;;;;;14.80;7.82;;;;;;;11.61;59.96;102854.38;4949539;28;119974;-68
2022/11/11 06:35:05;;;;;;;15.85;8.25;;;;;;;11.56;60.04;102861.53;4962111;28;119516;-67
2022/11/11 06:37:50;;;;;;;14.27;7.10;;;;;;;11.52;60.13;102865.16;4962954;28;124713;-67
2022/11/11 06:40:35;;;;;;;13.07;7.20;;;;;;;11.47;60.41;102863.44;4959062;28;124861;-67
2022/11/11 06:43:22;;;;;;;12.80;6.82;;;;;;;11.43;60.43;102867.06;4958224;28;120567;-67
2022/11/11 06:46:17;;;;;;;12.10;6.50;;;;;;;11.40;60.44;102867.09;4962366;28;119614;-67
2022/11/11 06:49:03;;;;;;;14.98;6.85;;;;;;;11.39;60.40;102869.75;4956448;28;124970;-67
2022/11/11 06:51:48;;;;;;;;;;;;;;;11.34;60.27;102877.81;4956682;28;125005;-67
2022/11/11 06:54:34;;;;;;;9.90;6.03;;;;;;;11.33;60.36;102880.47;4964677;28;121344;-68
2022/11/11 06:57:22;;;;;;;10.80;5.97;;;;;;;11.30;60.33;102876.06;4966538;28;121049;-67
2022/11/11 07:00:08;;;;;;;10.98;5.60;;;;;;;11.28;60.46;102877.88;4962963;28;124905;-68
2022/11/11 07:02:54;;;;;;;11.10;5.75;;;;;;;11.27;60.74;102886.75;4961069;28;124468;-68
2022/11/11 07:05:41;;;;;;;13.07;5.85;;;;;;;11.24;60.74;102881.50;4974617;28;119725;-68
2022/11/11 07:08:27;;;;;;;8.85;5.40;;;;;;;11.23;60.62;102874.44;4955774;28;119482;-67
2022/11/11 07:11:13;;;;;;;10.35;5.30;;;;;;;11.21;60.76;102876.25;4958329;28;124600;-67
2022/11/11 07:14:03;;;;;;;9.10;5.43;;;;;;;11.21;60.68;102870.94;4952883;28;124708;-67
2022/11/11 07:16:49;;;;;;;10.80;5.22;;;;;;;11.21;60.98;102870.94;4966569;28;120014;-67
2022/11/11 07:19:34;;;;;;;7.65;4.97;;;;;;;11.21;60.88;102876.25;4953371;28;119565;-67
2022/11/11 07:22:19;;;;;;;7.15;4.50;;;;;;;11.21;60.84;102877.13;4956230;28;124786;-67
2022/11/11 07:25:05;;;;;;;8.75;3.63;;;;;;;11.21;60.82;102887.72;4957742;28;124844;-68
2022/11/11 07:27:51;;;;;;;9.30;4.43;;;;;;;11.21;60.69;102886.84;4964249;28;120461;-68
2022/11/11 07:30:43;;;;;;;8.98;4.50;;;;;;;11.23;60.83;102891.22;4957314;28;119540;-68
2022/11/11 07:33:29;;;;;;;9.02;4.60;;;;;;;11.26;60.90;102900.91;4952637;28;124644;-68
2022/11/11 07:36:14;;;;;;;11.77;5.20;;;;;;;11.28;60.71;102899.09;4951818;28;124696;-69
2022/11/11 07:39:00;;;;;;;8.88;4.55;;;;;;;11.30;61.00;102905.25;4950829;28;119755;-73
2022/11/11 07:41:53;;;;;;;6.45;3.97;;;;;;;11.32;61.00;102906.16;4953691;28;118802;-74
2022/11/11 07:44:38;;;;;;;7.32;4.28;;;;;;;11.35;60.93;102906.06;4963366;28;125336;-75
2022/11/11 07:47:27;;;;;;;7.38;4.47;;;;;;;11.38;60.88;102916.66;4970582;28;124013;-72
2022/11/11 07:50:12;;;;;;;8.30;4.53;;;;;;;11.38;61.01;102916.66;4958943;28;120712;-76
2022/11/11 07:52:58;;;;;;;9.43;4.50;;;;;;;11.41;60.87;102926.34;4953524;28;121145;-71
2022/11/11 07:55:45;;;;;;;10.43;5.10;;;;;;;11.43;60.79;102925.44;4957120;28;124813;-72
2022/11/11 07:58:30;;;;;;;7.80;4.07;;;;;;;11.45;60.83;102928.03;4958119;28;124512;-71
2022/11/11 08:01:16;;;;;;;9.25;4.20;;;;;;;11.48;60.98;102934.19;4960976;28;121025;-71
2022/11/11 08:04:02;;;;;;;8.73;4.50;;;;;;;11.52;60.87;102942.09;4957555;28;122119;-71
2022/11/11 08:06:48;;;;;;;;;;;;;;;11.54;60.87;102956.22;4960737;28;125232;-71
2022/11/11 08:09:33;;;;;;;8.13;4.15;;;;;;;11.58;60.79;102949.97;4974750;28;124726;-71
2022/11/11 08:15:23;;;;;;;7.07;3.88;;;;;;;11.65;60.87;102962.25;4966931;28;119747;-71
2022/11/11 08:18:09;;;;;;;6.03;4.03;;;;;;;11.67;60.93;102965.75;4954229;28;124827;-70
2022/11/11 08:20:54;;;;;;;;;;;;;;;11.69;60.64;102958.63;4957437;28;125370;-71
2022/11/11 08:23:40;;;;;;;9.05;3.67;;;;;;;11.75;60.56;102963.84;4949370;28;119998;-70
2022/11/11 08:26:46;;;;;;;8.23;4.47;;;;;;;11.79;60.68;102964.66;4951985;28;119668;-69
2022/11/11 08:29:32;;;;;;;5.63;3.17;;;;;;;11.81;60.73;102969.06;4960478;28;124556;-71
2022/11/11 08:32:17;;;;;;;5.43;3.20;;;;;;;11.85;60.71;102965.47;4955457;28;125204;-70
2022/11/11 08:35:03;;;;;;;6.30;3.20;;;;;;;11.88;60.76;102973.38;4961977;28;120036;-70
2022/11/11 08:37:49;;;;;;;5.70;2.90;;;;;;;11.94;60.75;102974.19;4966582;28;119772;-70
2022/11/11 08:40:34;;;;;;;6.07;3.63;;;;;;;11.97;60.54;102968.84;4964861;28;125048;-70
2022/11/11 08:43:31;;;;;;;6.68;3.47;;;;;;;12.02;60.52;102980.28;5050693;27;96585;-70
2022/11/11 08:46:23;;;;;;;5.60;2.95;;;;;;;12.07;60.49;102997.00;5018901;27;107796;-69
2022/11/11 08:49:10;;;;;;;5.85;3.40;;;;;;;12.10;60.51;102981.00;5042177;27;124801;-69
2022/11/11 08:51:55;;;;;;;5.78;3.58;;;;;;;12.14;60.60;102987.16;5015912;27;125100;-70
2022/11/11 08:54:41;;;;;;;8.02;4.10;;;;;;;12.18;60.50;102991.50;5017325;27;108625;-70
2022/11/11 08:57:27;;;;;;;6.93;3.47;;;;;;;12.22;60.49;102986.13;5028589;27;107925;-70
2022/11/11 09:00:13;;;;;;;7.63;3.50;;;;;;;12.26;60.34;102987.81;5002744;28;124886;-70
2022/11/11 09:03:02;;;;;;;;;;;;;;;12.29;60.28;102986.00;5009237;27;124712;-70
2022/11/11 09:05:48;;;;;;;5.53;3.15;;;;;;;12.35;60.16;102980.59;4993882;27;108580;-73
2022/11/11 09:08:34;;;;;;;5.43;2.60;;;;;;;12.38;60.45;102978.75;5021538;27;107739;-73
2022/11/11 09:11:19;;;;;;;5.38;3.10;;;;;;;12.43;60.28;102983.97;5000454;28;125248;-73
2022/11/11 09:14:05;;;;;;;;;;;;;;;12.44;60.22;102983.06;5022409;27;124594;-70
2022/11/11 09:16:50;;;;;;;4.50;3.00;;;;;;;12.50;60.13;102977.63;5024658;27;108314;-71
2022/11/11 09:19:35;;;;;;;5.90;3.00;;;;;;;12.55;60.09;102972.25;5017641;28;108027;-71
2022/11/11 09:22:21;;;;;;;4.75;2.92;;;;;;;12.58;59.93;102972.16;5008546;27;125499;-71
2022/11/11 09:25:06;;;;;;;6.40;3.10;;;;;;;12.61;60.21;102980.97;5008692;28;124358;-71
2022/11/11 09:27:57;;;;;;;4.93;2.83;;;;;;;12.66;60.00;102987.06;5010469;27;108090;-70
2022/11/11 09:30:43;;;;;;;7.05;3.00;;;;;;;12.72;60.12;102986.09;5008555;28;108140;-70
2022/11/11 09:33:31;;;;;;;6.22;3.30;;;;;;;12.78;59.91;102990.41;5012308;27;124673;-68
2022/11/11 09:36:17;;;;;;;5.38;3.15;;;;;;;12.83;60.04;102989.41;5016367;27;124994;-71
2022/11/11 09:39:03;;;;;;;6.53;3.22;;;;;;;12.90;60.18;102995.47;5020396;27;108172;-71
2022/11/11 09:41:52;;;;;;;;;;;;;;;12.93;60.00;102990.09;5014998;27;107645;-72
2022/11/11 09:45:17;;;;;;;7.15;3.17;;;;;;;12.99;59.67;102992.63;5023401;27;124872;-73
2022/11/11 09:48:24;;;;;;;4.85;3.22;;;;;;;13.04;59.88;102998.72;4986255;28;124332;-72
2022/11/11 09:51:19;;;;;;;4.78;3.03;;;;;;;13.10;59.73;103007.50;5030511;27;107936;-73
2022/11/11 09:54:11;;;;;;;4.72;2.63;;;;;;;13.15;59.64;103000.31;5009450;27;107173;-71
2022/11/11 09:57:04;;;;;;;5.43;2.90;;;;;;;13.17;59.58;102999.34;5007667;28;124886;-71
2022/11/11 09:59:53;;;;;;;4.70;2.85;;;;;;;13.22;59.32;102996.56;5001271;28;124529;-71
2022/11/11 10:02:48;;;;;;;4.90;2.90;;;;;;;13.24;59.31;103005.41;5003929;28;108172;-71
2022/11/11 10:05:45;;;;;;;4.25;2.83;;;;;;;13.25;59.40;103012.50;4991907;28;107871;-71
2022/11/11 10:08:45;;;;;;;7.65;2.70;;;;;;;13.27;59.20;103000.03;5013954;28;124830;-71
2022/11/11 10:11:50;;;;;;;6.70;2.88;;;;;;;13.31;59.17;103001.75;5014393;28;123984;-71
2022/11/11 10:14:38;;;;;;;6.13;3.10;;;;;;;13.37;59.25;103006.94;5012222;28;108310;-72
2022/11/11 10:17:30;;;;;;;4.28;2.83;;;;;;;13.42;59.01;103004.16;4998520;28;108337;-72
2022/11/11 10:20:27;;;;;;;4.50;2.83;;;;;;;13.46;58.98;102994.34;4982259;28;125400;-72
2022/11/11 10:23:19;;;;;;;4.90;2.97;;;;;;;13.52;59.06;102996.84;5000335;28;124743;-71
2022/11/11 10:26:19;;;;;;;4.70;3.10;;;;;;;13.56;59.19;103007.41;5005547;28;108188;-71
2022/11/11 10:29:13;;;;;;;5.28;2.70;;;;;;;13.59;58.75;103001.13;5005865;28;107898;-72
2022/11/11 10:32:13;;;;;;;4.45;2.90;;;;;;;13.64;58.87;103004.56;4997428;28;124943;-72
2022/11/11 10:35:14;;;;;;;5.63;2.70;;;;;;;13.69;58.77;103002.66;5007366;28;124722;-71
2022/11/11 10:38:16;;;;;;;5.57;2.97;;;;;;;13.76;58.80;102998.94;5005126;28;108238;-72
2022/11/11 10:41:14;;;;;;;5.35;2.88;;;;;;;13.81;58.80;102997.03;5006518;28;107684;-71
2022/11/11 10:44:00;;;;;;;4.88;3.10;;;;;;;13.90;58.76;102997.72;5027732;28;125341;-73
2022/11/11 10:46:57;;;;;;;6.30;3.15;;;;;;;13.95;58.69;103003.81;5010843;28;124527;-71
2022/11/11 10:49:55;;;;;;;5.13;3.00;;;;;;;13.98;58.46;102995.75;5003694;28;107938;-71
2022/11/11 10:52:49;;;;;;;4.55;2.78;;;;;;;14.03;58.46;102996.50;5000177;28;108420;-72
2022/11/11 10:55:45;;;;;;;4.45;2.85;;;;;;;14.10;58.56;102997.25;5005536;28;124581;-71
2022/11/11 10:58:38;;;;;;;5.60;3.05;;;;;;;14.16;58.28;102989.94;5012144;28;124924;-72
2022/11/11 11:01:34;;;;;;;5.13;2.78;;;;;;;14.23;58.53;102992.47;5006326;28;108348;-71
2022/11/11 11:04:28;;;;;;;;;;;;;;;14.27;58.41;102984.34;4992071;28;108028;-71
2022/11/11 11:07:19;;;;;;;4.03;2.30;;;;;;;14.36;58.43;102989.44;5009651;28;124269;-70
2022/11/11 11:10:11;;;;;;;4.45;2.53;;;;;;;14.44;58.05;102991.91;5004340;28;124643;-71
2022/11/11 11:13:07;;;;;;;3.58;2.33;;;;;;;14.49;58.10;102984.66;5014078;28;107385;-71
2022/11/11 11:15:55;;;;;;;;;;;;;;;14.54;58.37;102982.75;5010694;28;108024;-71
2022/11/11 11:18:41;;;;;;;4.75;2.42;;;;;;;14.63;58.07;102983.44;5001736;28;126219;-71
2022/11/11 11:21:47;;;;;;;4.40;2.53;;;;;;;14.71;57.88;102976.09;4992270;28;124739;-71
2022/11/11 11:24:36;;;;;;;5.72;2.80;;;;;;;14.78;57.76;102975.00;4999674;28;108166;-70
2022/11/11 11:27:27;;;;;;;3.80;2.50;;;;;;;14.85;57.81;102976.56;4992113;28;107999;-71
2022/11/11 11:30:16;;;;;;;3.60;2.40;;;;;;;14.92;57.63;102980.81;5007418;28;125795;-71
2022/11/11 11:33:07;;;;;;;4.53;2.50;;;;;;;15.01;57.56;102986.81;5006698;28;124640;-71
2022/11/11 11:35:53;;;;;;;4.00;2.50;;;;;;;15.09;57.55;102984.81;5007731;28;108387;-71
2022/11/11 11:38:46;;;;;;;3.03;1.92;;;;;;;15.18;57.33;102984.50;5009340;28;108333;-70
2022/11/11 11:41:41;;;;;;;4.22;2.22;;;;;;;15.26;57.25;102977.16;4998184;28;124713;-71
2022/11/11 11:44:32;;;;;;;4.27;2.17;;;;;;;15.35;57.14;102982.22;4990272;28;124410;-71
2022/11/11 11:47:46;;;;;;;4.78;2.85;;;;;;;15.44;57.02;102980.16;4989451;28;108470;-71
2022/11/11 11:50:56;;;;;;;8.52;3.80;;;;;;;15.52;56.83;102978.13;5003505;28;107989;-71
2022/11/11 11:53:55;;;;;;;7.70;3.28;;;;;;;15.61;56.87;102967.13;4990282;28;124586;-71
2022/11/11 11:56:46;;;;;;;5.57;2.75;;;;;;;15.70;56.72;102969.53;5008398;28;124755;-71
2022/11/11 11:59:40;;;;;;;8.70;4.07;;;;;;;15.81;56.65;102968.34;4991640;28;108097;-71
2022/11/11 12:02:44;;;;;;;7.65;3.35;;;;;;;15.90;56.35;102973.38;5008980;28;108186;-71
2022/11/11 12:05:40;;;;;;;6.78;3.10;;;;;;;15.98;55.95;102960.63;5002897;28;124798;-71
2022/11/11 12:08:41;;;;;;;8.30;3.70;;;;;;;16.03;56.12;102958.69;5004847;28;124715;-71
2022/11/11 12:11:41;;;;;;;4.45;2.40;;;;;;;16.10;55.96;102954.84;5005710;28;108521;-72
2022/11/11 12:14:47;;;;;;;4.85;2.70;;;;;;;16.18;55.82;102951.03;5008420;28;107717;-71
2022/11/11 12:18:07;;;;;;;6.90;2.30;;;;;;;16.26;55.72;102952.53;4997521;28;124930;-71
2022/11/11 12:21:03;;;;;;;4.70;2.33;;;;;;;16.34;55.77;102953.13;5005937;28;124706;-71
2022/11/11 12:24:26;;;;;;;5.72;2.80;;;;;;;16.43;55.66;102951.94;5010480;28;108416;-72
2022/11/11 12:27:18;;;;;;;4.15;2.08;;;;;;;16.51;55.22;102941.81;4995658;28;108777;-72
2022/11/11 12:30:10;;;;;;;5.53;2.17;;;;;;;16.61;55.04;102944.16;5013744;28;124813;-71
2022/11/11 12:33:05;;;;;;;2.80;1.60;;;;;;;16.70;55.09;102943.81;5012154;28;124930;-72
2022/11/11 12:36:09;;;;;;;4.13;1.70;;;;;;;16.77;55.13;102934.63;5008562;28;108719;-73
2022/11/11 12:39:06;;;;;;;4.55;2.30;;;;;;;16.84;54.69;102930.84;4994199;28;107014;-71
2022/11/11 12:42:03;;;;;;;5.18;2.08;;;;;;;16.89;54.61;102928.81;4981699;28;124673;-71
2022/11/11 12:44:51;;;;;;;5.28;2.33;;;;;;;16.97;54.53;102927.66;5004371;28;124669;-71
2022/11/11 12:48:11;;;;;;;7.60;2.80;;;;;;;17.03;54.31;102930.13;4999947;28;108413;-72
2022/11/11 12:51:19;;;;;;;3.58;1.55;;;;;;;17.10;54.14;102928.94;5003989;28;108205;-72
2022/11/11 12:54:14;;;;;;;7.68;1.80;;;;;;;17.14;54.00;102927.91;4999601;28;124592;-72
2022/11/11 12:57:08;;;;;;;3.33;1.50;;;;;;;17.21;53.99;102926.69;5003160;28;125171;-71
2022/11/11 13:00:07;;;;;;;3.83;1.40;;;;;;;17.25;53.74;102925.69;5005615;28;108182;-71
2022/11/11 13:03:09;;;;;;;2.40;1.40;;;;;;;17.30;53.56;102918.31;4993071;28;107710;-72
2022/11/11 13:06:17;;;;;;;2.85;1.38;;;;;;;17.35;53.51;102920.81;5005108;28;125147;-71
2022/11/11 13:09:16;;;;;;;3.38;1.65;;;;;;;17.41;53.55;102920.56;4996355;28;124487;-72
2022/11/11 13:12:22;;;;;;;4.07;1.40;;;;;;;17.46;53.34;102915.00;5009253;28;108022;-71
2022/11/11 13:15:15;;;;;;;3.28;1.60;;;;;;;17.51;53.31;102911.19;4993752;28;108007;-71
2022/11/11 13:18:07;;;;;;;6.63;1.88;;;;;;;17.59;53.25;102923.41;4978208;28;124086;-71
2022/11/11 13:21:00;;;;;;;4.63;1.45;;;;;;;17.66;52.93;102920.41;4994283;28;124717;-71
2022/11/11 13:23:46;;;;;;;4.22;1.70;;;;;;;17.71;52.71;102912.19;4996094;28;107942;-71
2022/11/11 13:26:41;;;;;;;4.35;1.30;;;;;;;17.77;52.83;102916.41;4999559;28;108165;-71
2022/11/11 13:30:04;;;;;;;7.22;1.70;;;;;;;17.80;52.90;102906.44;4994934;28;125032;-71
2022/11/11 13:33:18;;;;;;;3.20;1.35;;;;;;;17.85;52.61;102908.94;4996285;28;124403;-71
2022/11/11 13:36:14;;;;;;;3.10;1.45;;;;;;;17.90;52.52;102912.31;4993892;28;109963;-71
2022/11/11 13:39:01;;;;;;;3.00;1.58;;;;;;;17.92;52.22;102921.16;5014309;28;110357;-71
2022/11/11 13:41:52;;;;;;;2.95;1.40;;;;;;;17.92;52.03;102910.44;5015260;28;125421;-71
2022/11/11 13:44:54;;;;;;;3.58;1.30;;;;;;;17.91;52.08;102906.00;4994764;28;125178;-71
2022/11/11 13:47:46;;;;;;;4.35;1.52;;;;;;;17.91;51.79;102908.69;5028321;28;109897;-71
2022/11/11 13:50:39;;;;;;;2.53;1.20;;;;;;;17.93;51.90;102916.66;5015752;28;110414;-71
2022/11/11 13:53:33;;;;;;;3.97;1.55;;;;;;;17.95;52.06;102920.16;5026288;28;125148;-72
2022/11/11 13:56:32;;;;;;;3.15;1.58;;;;;;;17.95;51.88;102921.03;4979958;28;124554;-72
2022/11/11 13:59:33;;;;;;;4.18;1.60;;;;;;;17.93;51.65;102916.66;4995839;28;109966;-71
2022/11/11 14:02:19;;;;;;;4.30;1.70;;;;;;;17.92;51.58;102910.44;4995444;28;109670;-71
2022/11/11 14:05:05;;;;;;;2.95;1.98;;;;;;;17.92;51.91;102909.56;5012281;27;124853;-71
2022/11/11 14:07:55;;;;;;;4.38;2.00;;;;;;;17.92;51.67;102910.44;5029704;27;125136;-71
2022/11/11 14:10:59;;;;;;;3.85;2.22;;;;;;;17.93;51.74;102919.34;4990150;28;109136;-71
2022/11/11 14:13:45;;;;;;;3.58;1.67;;;;;;;17.95;51.73;102910.31;4981547;28;109365;-71
2022/11/11 14:16:33;;;;;;;3.58;1.80;;;;;;;17.94;51.56;102919.28;4994998;28;125242;-71
2022/11/11 14:19:18;;;;;;;4.25;1.75;;;;;;;17.93;51.69;102922.88;4986663;28;124386;-71
2022/11/11 14:22:31;;;;;;;2.28;1.60;;;;;;;17.90;51.76;102912.31;4995498;28;109201;-71